createdAt,value
2017-10-18T00:01:07.947Z,101740.55
2017-10-18T00:03:34.245Z,101739.66
2017-10-18T00:06:00.676Z,101738.79
2017-10-18T00:08:26.933Z,101746.66
2017-10-18T00:10:53.193Z,101746.24
2017-10-18T00:13:20.438Z,101745.80
2017-10-18T00:15:46.711Z,101738.84
2017-10-18T00:18:17.738Z,101727.89
2017-10-18T00:20:44.013Z,101731.43
2017-10-18T00:23:10.341Z,101733.70
2017-10-18T00:25:36.574Z,101740.72
2017-10-18T00:28:03.003Z,101739.77
2017-10-18T00:30:29.236Z,101730.98
2017-10-18T00:32:55.450Z,101725.74
2017-10-18T00:35:21.820Z,101724.86
2017-10-18T00:37:49.065Z,101722.23
2017-10-18T00:40:15.426Z,101727.94
2017-10-18T00:42:41.716Z,101728.81
2017-10-18T00:45:07.943Z,101722.67
2017-10-18T00:47:34.242Z,101710.92
2017-10-18T00:50:01.478Z,101707.00
2017-10-18T00:52:27.727Z,101720.63
2017-10-18T00:54:53.950Z,101730.77
2017-10-18T00:57:20.253Z,101716.34
2017-10-18T00:59:47.165Z,101710.60
2017-10-18T01:02:13.442Z,101708.88
2017-10-18T01:04:40.755Z,101715.44
2017-10-18T01:07:07.189Z,101716.76
2017-10-18T01:09:33.467Z,101708.04
2017-10-18T01:12:00.174Z,101694.03
2017-10-18T01:14:26.529Z,101695.73
2017-10-18T01:16:52.741Z,101696.66
2017-10-18T01:19:19.100Z,101708.44
2017-10-18T01:21:45.411Z,101708.31
2017-10-18T01:24:11.657Z,101703.02
2017-10-18T01:26:37.962Z,101683.23
2017-10-18T01:29:04.212Z,101704.77
2017-10-18T01:31:30.649Z,101694.38
2017-10-18T01:33:56.937Z,101696.11
2017-10-18T01:36:23.162Z,101685.63
2017-10-18T01:38:49.415Z,101699.20
2017-10-18T01:41:16.893Z,101696.59
2017-10-18T01:43:43.137Z,101685.68
2017-10-18T01:46:09.351Z,101690.94
2017-10-18T01:48:35.605Z,101700.21
2017-10-18T01:51:01.925Z,101692.34
2017-10-18T01:53:28.159Z,101683.16
2017-10-18T01:55:54.441Z,101691.88
2017-10-18T01:58:20.645Z,101690.06
2017-10-18T02:00:46.902Z,101682.61
2017-10-18T02:03:13.214Z,101688.36
2017-10-18T02:05:39.460Z,101683.97
2017-10-18T02:08:06.079Z,101682.17
2017-10-18T02:10:32.369Z,101683.05
2017-10-18T02:12:58.670Z,101685.22
2017-10-18T02:15:24.930Z,101681.73
2017-10-18T02:17:51.230Z,101685.27
2017-10-18T02:20:17.552Z,101682.22
2017-10-18T02:22:43.798Z,101678.69
2017-10-18T02:25:10.176Z,101676.98
2017-10-18T02:27:36.411Z,101672.59
2017-10-18T02:30:02.671Z,101681.76
2017-10-18T02:32:28.967Z,101678.66
2017-10-18T02:34:55.217Z,101672.52
2017-10-18T02:37:21.465Z,101659.84
2017-10-18T02:39:48.723Z,101657.20
2017-10-18T02:42:14.954Z,101665.15
2017-10-18T02:44:41.201Z,101669.16
2017-10-18T02:47:07.922Z,101660.37
2017-10-18T02:49:34.191Z,101663.09
2017-10-18T02:52:00.438Z,101659.16
2017-10-18T02:54:28.216Z,101667.97
2017-10-18T02:56:54.438Z,101668.42
2017-10-18T02:59:20.665Z,101664.03
2017-10-18T03:01:46.970Z,101651.79
2017-10-18T03:04:13.202Z,101645.23
2017-10-18T03:06:39.475Z,101651.36
2017-10-18T03:09:06.620Z,101654.89
2017-10-18T03:11:32.909Z,101658.00
2017-10-18T03:13:59.155Z,101661.93
2017-10-18T03:16:28.012Z,101661.86
2017-10-18T03:18:55.821Z,101666.20
2017-10-18T03:21:22.843Z,101663.16
2017-10-18T03:23:49.510Z,101651.73
2017-10-18T03:26:15.811Z,101652.19
2017-10-18T03:28:42.081Z,101653.58
2017-10-18T03:31:08.451Z,101658.42
2017-10-18T03:33:34.710Z,101657.98
2017-10-18T03:36:01.001Z,101646.11
2017-10-18T03:38:27.638Z,101646.94
2017-10-18T03:40:53.951Z,101645.14
2017-10-18T03:43:20.183Z,101641.22
2017-10-18T03:45:46.538Z,101652.59
2017-10-18T03:48:12.770Z,101639.92
2017-10-18T03:50:38.979Z,101646.11
2017-10-18T03:53:05.270Z,101646.62
2017-10-18T03:55:31.589Z,101640.94
2017-10-18T03:57:57.839Z,101648.83
2017-10-18T04:00:24.351Z,101644.81
2017-10-18T04:02:50.611Z,101650.09
2017-10-18T04:05:16.839Z,101645.72
2017-10-18T04:07:43.453Z,101647.03
2017-10-18T04:10:09.726Z,101639.11
2017-10-18T04:12:36.038Z,101649.19
2017-10-18T04:15:04.065Z,101641.31
2017-10-18T04:17:30.438Z,101643.98
2017-10-18T04:19:56.670Z,101637.78
2017-10-18T04:22:22.877Z,101645.72
2017-10-18T04:24:49.384Z,101636.12
2017-10-18T04:27:16.267Z,101633.91
2017-10-18T04:29:42.610Z,101644.44
2017-10-18T04:32:09.736Z,101643.13
2017-10-18T04:34:35.968Z,101638.67
2017-10-18T04:37:02.214Z,101640.82
2017-10-18T04:39:28.904Z,101641.63
2017-10-18T04:41:55.150Z,101640.71
2017-10-18T04:44:21.388Z,101633.23
2017-10-18T04:46:48.213Z,101636.70
2017-10-18T04:49:14.450Z,101637.20
2017-10-18T04:51:41.670Z,101636.78
2017-10-18T04:54:08.358Z,101637.18
2017-10-18T04:56:34.840Z,101641.17
2017-10-18T04:59:01.641Z,101627.66
2017-10-18T05:01:28.382Z,101630.35
2017-10-18T05:03:55.166Z,101626.82
2017-10-18T05:06:21.970Z,101633.79
2017-10-18T05:08:48.300Z,101632.09
2017-10-18T05:11:14.572Z,101624.17
2017-10-18T05:13:41.787Z,101632.12
2017-10-18T05:16:08.637Z,101632.55
2017-10-18T05:18:35.300Z,101622.02
2017-10-18T05:21:02.324Z,101624.68
2017-10-18T05:23:29.049Z,101629.48
2017-10-18T05:25:55.299Z,101622.81
2017-10-18T05:28:21.549Z,101620.20
2017-10-18T05:30:47.840Z,101621.98
2017-10-18T05:33:15.005Z,101623.80
2017-10-18T05:35:41.269Z,101618.11
2017-10-18T05:38:08.291Z,101619.35
2017-10-18T05:40:34.536Z,101623.78
2017-10-18T05:43:00.845Z,101611.90
2017-10-18T05:45:28.034Z,101618.94
2017-10-18T05:47:54.280Z,101621.56
2017-10-18T05:50:20.551Z,101615.40
2017-10-18T05:52:47.952Z,101624.22
2017-10-18T05:55:14.342Z,101625.14
2017-10-18T05:57:40.682Z,101624.72
2017-10-18T06:00:07.063Z,101636.13
2017-10-18T06:02:33.346Z,101620.45
2017-10-18T06:04:59.609Z,101626.55
2017-10-18T06:07:26.144Z,101626.11
2017-10-18T06:09:52.447Z,101627.90
2017-10-18T06:12:18.873Z,101626.41
2017-10-18T06:14:45.261Z,101628.92
2017-10-18T06:17:11.560Z,101636.27
2017-10-18T06:19:37.872Z,101635.77
2017-10-18T06:22:04.109Z,101639.67
2017-10-18T06:24:30.418Z,101642.30
2017-10-18T06:26:56.726Z,101647.59
2017-10-18T06:29:23.050Z,101641.05
2017-10-18T06:31:49.327Z,101640.67
2017-10-18T06:34:16.171Z,101641.13
2017-10-18T06:36:42.668Z,101640.25
2017-10-18T06:39:09.254Z,101646.83
2017-10-18T06:41:35.719Z,101640.27
2017-10-18T06:44:01.972Z,101643.39
2017-10-18T06:46:28.482Z,101644.73
2017-10-18T06:48:54.872Z,101643.38
2017-10-18T06:51:24.090Z,101636.42
2017-10-18T06:53:50.340Z,101637.73
2017-10-18T06:56:16.743Z,101639.49
2017-10-18T06:58:43.108Z,101643.90
2017-10-18T07:01:09.351Z,101646.94
2017-10-18T07:03:35.943Z,101651.79
2017-10-18T07:06:02.310Z,101640.83
2017-10-18T07:08:28.572Z,101642.58
2017-10-18T07:10:55.447Z,101640.76
2017-10-18T07:13:21.715Z,101645.53
2017-10-18T07:15:47.966Z,101643.77
2017-10-18T07:18:14.328Z,101643.78
2017-10-18T07:20:40.575Z,101642.90
2017-10-18T07:23:06.825Z,101643.31
2017-10-18T07:25:33.117Z,101646.38
2017-10-18T07:27:59.337Z,101644.61
2017-10-18T07:30:25.693Z,101649.45
2017-10-18T07:32:52.980Z,101647.23
2017-10-18T07:35:19.198Z,101641.66
2017-10-18T07:37:45.491Z,101649.02
2017-10-18T07:40:12.221Z,101650.33
2017-10-18T07:42:38.469Z,101654.26
2017-10-18T07:45:05.693Z,101658.59
2017-10-18T07:47:31.981Z,101657.28
2017-10-18T07:49:58.270Z,101659.01
2017-10-18T07:52:24.488Z,101655.91
2017-10-18T07:54:50.951Z,101647.17
2017-10-18T07:57:17.284Z,101652.39
2017-10-18T07:59:43.545Z,101651.95
2017-10-18T08:02:09.860Z,101651.08
2017-10-18T08:04:36.115Z,101653.70
2017-10-18T08:07:02.364Z,101656.72
2017-10-18T08:09:28.844Z,101657.11
2017-10-18T08:11:55.210Z,101653.14
2017-10-18T08:14:21.479Z,101662.77
2017-10-18T08:16:48.255Z,101658.83
2017-10-18T08:19:14.599Z,101656.63
2017-10-18T08:21:40.892Z,101653.63
2017-10-18T08:24:07.286Z,101651.86
2017-10-18T08:26:33.631Z,101654.75
2017-10-18T08:28:59.890Z,101657.83
2017-10-18T08:31:26.169Z,101656.95
2017-10-18T08:33:52.493Z,101655.20
2017-10-18T08:36:19.375Z,101649.48
2017-10-18T08:38:45.565Z,101645.91
2017-10-18T08:41:11.791Z,101641.07
2017-10-18T08:43:38.153Z,101648.94
2017-10-18T08:46:04.623Z,101639.28
2017-10-18T08:48:30.813Z,101642.73
2017-10-18T08:50:57.069Z,101640.48
2017-10-18T08:53:23.511Z,101639.61
2017-10-18T08:55:49.736Z,101632.15
2017-10-18T08:58:16.386Z,101631.66
2017-10-18T09:00:42.671Z,101628.16
2017-10-18T09:03:08.997Z,101625.91
2017-10-18T09:05:35.308Z,101627.66
2017-10-18T09:08:01.742Z,101627.23
2017-10-18T09:10:28.230Z,101630.30
2017-10-18T09:12:54.592Z,101625.91
2017-10-18T09:15:20.802Z,101633.31
2017-10-18T09:17:47.063Z,101630.22
2017-10-18T09:20:13.691Z,101633.27
2017-10-18T09:22:39.893Z,101634.12
2017-10-18T09:25:06.421Z,101633.66
2017-10-18T09:27:32.685Z,101632.75
2017-10-18T09:29:59.142Z,101630.11
2017-10-18T09:32:25.351Z,101635.38
2017-10-18T09:34:52.429Z,101639.72
2017-10-18T09:37:18.621Z,101634.95
2017-10-18T09:39:44.796Z,101629.22
2017-10-18T09:42:11.411Z,101635.77
2017-10-18T09:44:37.633Z,101631.80
2017-10-18T09:47:03.900Z,101633.91
2017-10-18T09:49:30.254Z,101633.50
2017-10-18T09:51:56.460Z,101632.13
2017-10-18T09:54:22.912Z,101634.30
2017-10-18T09:56:49.263Z,101635.62
2017-10-18T09:59:15.469Z,101638.64
2017-10-18T10:01:41.720Z,101636.42
2017-10-18T10:04:08.062Z,101635.48
2017-10-18T10:06:34.264Z,101632.77
2017-10-18T10:09:00.518Z,101631.87
2017-10-18T10:11:27.195Z,101629.59
2017-10-18T10:13:53.438Z,101630.75
2017-10-18T10:16:19.701Z,101629.20
2017-10-18T10:18:45.989Z,101626.05
2017-10-18T10:21:12.195Z,101627.39
2017-10-18T10:23:38.409Z,101627.33
2017-10-18T10:26:04.794Z,101629.91
2017-10-18T10:28:31.010Z,101636.44
2017-10-18T10:30:57.210Z,101631.05
2017-10-18T10:33:23.880Z,101629.62
2017-10-18T10:38:16.110Z,101625.93
2017-10-18T10:40:42.595Z,101628.03
2017-10-18T10:43:08.806Z,101626.69
2017-10-18T10:45:35.223Z,101624.90
2017-10-18T10:48:01.463Z,101615.64
2017-10-18T10:50:27.651Z,101618.22
2017-10-18T10:52:53.824Z,101615.55
2017-10-18T10:55:20.391Z,101618.12
2017-10-18T10:57:46.578Z,101615.99
2017-10-18T11:00:12.779Z,101618.62
2017-10-18T11:02:39.054Z,101616.87
2017-10-18T11:05:05.271Z,101618.12
2017-10-18T11:07:31.481Z,101614.08
2017-10-18T11:09:58.046Z,101618.72
2017-10-18T11:12:24.223Z,101617.88
2017-10-18T11:14:50.759Z,101619.58
2017-10-18T11:17:17.007Z,101627.05
2017-10-18T11:19:43.438Z,101616.87
2017-10-18T11:22:09.616Z,101614.64
2017-10-18T11:24:35.865Z,101616.40
2017-10-18T11:27:02.061Z,101612.82
2017-10-18T11:29:28.511Z,101608.77
2017-10-18T11:31:54.830Z,101609.55
2017-10-18T11:34:21.007Z,101604.21
2017-10-18T11:36:47.261Z,101598.06
2017-10-18T11:39:14.078Z,101599.84
2017-10-18T11:41:40.505Z,101602.89
2017-10-18T11:44:06.690Z,101599.95
2017-10-18T11:46:33.325Z,101595.62
2017-10-18T11:48:59.495Z,101596.97
2017-10-18T11:51:25.701Z,101593.08
2017-10-18T11:53:52.569Z,101574.10
2017-10-18T11:56:18.746Z,101587.56
2017-10-18T11:58:44.928Z,101583.27
2017-10-18T12:01:18.217Z,101582.02
2017-10-18T12:03:44.393Z,101578.59
2017-10-18T12:06:10.573Z,101569.43
2017-10-18T12:08:37.165Z,101576.90
2017-10-18T12:11:03.362Z,101569.43
2017-10-18T12:13:29.525Z,101565.95
2017-10-18T12:15:55.867Z,101557.60
2017-10-18T12:18:22.450Z,101563.31
2017-10-18T12:20:48.649Z,101559.83
2017-10-18T12:23:14.885Z,101562.50
2017-10-18T12:25:41.067Z,101556.75
2017-10-18T12:28:07.245Z,101554.56
2017-10-18T12:30:33.515Z,101555.03
2017-10-18T12:32:59.672Z,101553.68
2017-10-18T12:35:25.862Z,101551.92
2017-10-18T12:37:52.477Z,101546.25
2017-10-18T12:40:18.670Z,101550.20
2017-10-18T12:42:44.841Z,101541.86
2017-10-18T12:45:11.405Z,101548.00
2017-10-18T12:47:37.887Z,101543.98
2017-10-18T12:50:04.070Z,101542.64
2017-10-18T12:52:30.343Z,101538.66
2017-10-18T12:54:56.607Z,101540.38
2017-10-18T12:57:23.102Z,101543.92
2017-10-18T12:59:49.347Z,101541.76
2017-10-18T13:02:15.531Z,101537.36
2017-10-18T13:04:41.750Z,101541.76
2017-10-18T13:07:08.069Z,101537.40
2017-10-18T13:09:34.261Z,101532.59
2017-10-18T13:12:00.440Z,101532.16
2017-10-18T13:14:26.776Z,101529.59
2017-10-18T13:16:53.204Z,101531.81
2017-10-18T13:19:19.618Z,101534.48
2017-10-18T13:21:45.831Z,101533.20
2017-10-18T13:24:12.287Z,101533.67
2017-10-18T13:26:38.866Z,101530.62
2017-10-18T13:29:05.051Z,101529.84
2017-10-18T13:31:31.239Z,101531.63
2017-10-18T13:33:57.646Z,101528.59
2017-10-18T13:36:23.842Z,101528.19
2017-10-18T13:38:50.038Z,101525.55
2017-10-18T13:41:16.370Z,101528.66
2017-10-18T13:43:42.871Z,101524.27
2017-10-18T13:46:09.067Z,101527.77
2017-10-18T13:48:35.319Z,101526.90
2017-10-18T13:51:01.498Z,101526.46
2017-10-18T13:53:33.717Z,101533.52
2017-10-18T13:56:00.668Z,101531.36
2017-10-18T13:58:26.848Z,101532.70
2017-10-18T14:00:53.030Z,101534.45
2017-10-18T14:03:19.618Z,101536.69
2017-10-18T14:05:45.803Z,101541.98
2017-10-18T14:08:12.014Z,101541.55
2017-10-18T14:10:38.325Z,101539.75
2017-10-18T14:13:04.768Z,101533.64
2017-10-18T14:15:30.958Z,101531.45
2017-10-18T14:17:57.958Z,101537.66
2017-10-18T14:20:24.146Z,101538.13
2017-10-18T14:22:50.333Z,101529.84
2017-10-18T14:25:16.925Z,101524.64
2017-10-18T14:27:43.379Z,101525.11
2017-10-18T14:30:09.565Z,101520.28
2017-10-18T14:32:35.818Z,101513.25
2017-10-18T14:35:02.079Z,101515.48
2017-10-18T14:37:28.271Z,101519.94
2017-10-18T14:39:54.546Z,101519.09
2017-10-18T14:42:20.744Z,101518.64
2017-10-18T14:44:47.282Z,101513.44
2017-10-18T14:47:13.657Z,101515.64
2017-10-18T14:49:40.100Z,101513.03
2017-10-18T14:52:06.322Z,101509.14
2017-10-18T14:54:32.903Z,101503.47
2017-10-18T14:56:59.134Z,101504.34
2017-10-18T14:59:25.342Z,101496.53
2017-10-18T15:01:51.641Z,101511.80
2017-10-18T15:04:17.813Z,101500.83
2017-10-18T15:06:44.018Z,101503.09
2017-10-18T15:09:10.666Z,101501.77
2017-10-18T15:11:36.849Z,101498.29
2017-10-18T15:14:03.043Z,101502.27
2017-10-18T15:16:29.354Z,101497.91
2017-10-18T15:18:55.647Z,101501.42
2017-10-18T15:21:21.844Z,101499.70
2017-10-18T15:23:48.098Z,101502.36
2017-10-18T15:26:14.322Z,101501.92
2017-10-18T15:28:40.501Z,101500.63
2017-10-18T15:31:06.760Z,101498.47
2017-10-18T15:33:32.965Z,101505.05
2017-10-18T15:35:59.213Z,101499.82
2017-10-18T15:38:25.472Z,101498.06
2017-10-18T15:40:51.657Z,101496.81
2017-10-18T15:43:17.825Z,101498.59
2017-10-18T15:45:44.066Z,101496.42
2017-10-18T15:48:10.542Z,101493.38
2017-10-18T15:50:36.750Z,101493.86
2017-10-18T15:53:03.110Z,101492.13
2017-10-18T15:55:29.385Z,101491.75
2017-10-18T15:57:55.572Z,101491.30
2017-10-18T16:00:21.831Z,101485.23
2017-10-18T16:02:48.024Z,101489.61
2017-10-18T16:05:14.223Z,101491.37
2017-10-18T16:07:40.490Z,101483.91
2017-10-18T16:10:06.692Z,101481.77
2017-10-18T16:12:32.892Z,101477.38
2017-10-18T16:14:59.397Z,101476.53
2017-10-18T16:17:25.893Z,101469.11
2017-10-18T16:19:52.152Z,101472.64
2017-10-18T16:22:18.451Z,101477.94
2017-10-18T16:24:45.806Z,101478.41
2017-10-18T16:27:12.067Z,101476.68
2017-10-18T16:29:38.831Z,101471.01
2017-10-18T16:32:05.013Z,101471.01
2017-10-18T16:34:31.360Z,101468.81
2017-10-18T16:36:57.642Z,101469.72
2017-10-18T16:39:23.840Z,101472.38
2017-10-18T16:41:50.326Z,101470.16
2017-10-18T16:44:16.595Z,101473.47
2017-10-18T16:46:42.824Z,101466.39
2017-10-18T16:49:09.044Z,101475.22
2017-10-18T16:51:35.612Z,101473.99
2017-10-18T16:54:01.814Z,101471.83
2017-10-18T16:56:28.018Z,101470.95
2017-10-18T16:58:54.556Z,101470.48
2017-10-18T17:01:20.758Z,101464.78
2017-10-18T17:03:46.960Z,101466.59
2017-10-18T17:06:13.729Z,101472.30
2017-10-18T17:08:39.933Z,101482.80
2017-10-18T17:11:06.113Z,101479.25
2017-10-18T17:13:32.370Z,101479.61
2017-10-18T17:15:58.597Z,101482.67
2017-10-18T17:18:24.818Z,101480.13
2017-10-18T17:20:51.349Z,101478.78
2017-10-18T17:23:17.837Z,101480.98
2017-10-18T17:25:44.033Z,101484.45
2017-10-18T17:28:10.370Z,101488.00
2017-10-18T17:30:36.820Z,101487.09
2017-10-18T17:33:03.047Z,101484.92
2017-10-18T17:35:29.925Z,101488.00
2017-10-18T17:37:56.131Z,101489.75
2017-10-18T17:40:22.351Z,101492.41
2017-10-18T17:42:48.866Z,101490.22
2017-10-18T17:45:15.113Z,101491.48
2017-10-18T17:47:41.963Z,101491.42
2017-10-18T17:50:08.496Z,101494.49
2017-10-18T17:52:34.704Z,101496.22
2017-10-18T17:55:01.311Z,101498.91
2017-10-18T17:57:27.528Z,101504.17
2017-10-18T17:59:53.778Z,101500.20
2017-10-18T18:02:20.170Z,101505.89
2017-10-18T18:04:46.378Z,101506.77
2017-10-18T18:07:12.599Z,101511.16
2017-10-18T18:09:38.838Z,101512.94
2017-10-18T18:12:05.068Z,101509.90
2017-10-18T18:14:31.352Z,101511.77
2017-10-18T18:16:57.988Z,101518.75
2017-10-18T18:19:24.222Z,101521.77
2017-10-18T18:21:50.420Z,101523.91
2017-10-18T18:24:17.378Z,101527.41
2017-10-18T18:26:43.618Z,101525.31
2017-10-18T18:29:09.826Z,101532.36
2017-10-18T18:31:36.474Z,101530.69
2017-10-18T18:34:02.673Z,101532.03
2017-10-18T18:36:28.997Z,101531.17
2017-10-18T18:38:55.351Z,101535.15
2017-10-18T18:41:21.649Z,101528.08
2017-10-18T18:43:47.853Z,101524.47
2017-10-18T18:46:14.342Z,101524.41
2017-10-18T18:48:40.561Z,101520.41
2017-10-18T18:51:06.809Z,101521.34
2017-10-18T18:53:33.176Z,101521.74
2017-10-18T18:55:59.382Z,101526.19
2017-10-18T18:58:25.613Z,101520.92
2017-10-18T19:00:51.873Z,101524.87
2017-10-18T19:03:18.127Z,101529.73
2017-10-18T19:05:44.452Z,101525.77
2017-10-18T19:08:10.891Z,101525.80
2017-10-18T19:10:37.122Z,101520.55
2017-10-18T19:13:03.751Z,101517.03
2017-10-18T19:15:29.942Z,101520.57
2017-10-18T19:17:56.141Z,101507.58
2017-10-18T19:20:22.686Z,101514.52
2017-10-18T19:22:48.946Z,101513.25
2017-10-18T19:25:15.186Z,101508.43
2017-10-18T19:27:41.427Z,101503.60
2017-10-18T19:30:07.643Z,101503.19
2017-10-18T19:32:33.859Z,101498.40
2017-10-18T19:35:00.654Z,101500.12
2017-10-18T19:37:26.953Z,101499.69
2017-10-18T19:39:53.183Z,101491.47
2017-10-18T19:42:20.044Z,101495.44
2017-10-18T19:44:46.243Z,101498.95
2017-10-18T19:47:12.437Z,101500.18
2017-10-18T19:49:38.779Z,101498.84
2017-10-18T19:52:05.182Z,101495.77
2017-10-18T19:54:31.380Z,101490.50
2017-10-18T19:56:57.978Z,101499.25
2017-10-18T19:59:24.182Z,101498.37
2017-10-18T20:01:50.636Z,101497.52
2017-10-18T20:04:17.050Z,101495.74
2017-10-18T20:06:43.320Z,101496.17
2017-10-18T20:09:09.826Z,101500.09
2017-10-18T20:11:36.265Z,101498.75
2017-10-18T20:14:02.970Z,101500.06
2017-10-18T20:16:29.233Z,101506.18
2017-10-18T20:18:55.572Z,101501.50
2017-10-18T20:21:22.171Z,101506.81
2017-10-18T20:23:48.347Z,101503.66
2017-10-18T20:26:14.837Z,101504.10
2017-10-18T20:28:41.128Z,101506.20
2017-10-18T20:31:07.338Z,101504.02
2017-10-18T20:33:33.554Z,101506.62
2017-10-18T20:35:59.942Z,101502.59
2017-10-18T20:38:26.154Z,101507.79
2017-10-18T20:40:52.346Z,101503.41
2017-10-18T20:43:18.965Z,101503.41
2017-10-18T20:45:45.158Z,101500.78
2017-10-18T20:48:11.396Z,101495.95
2017-10-18T20:50:37.663Z,101493.78
2017-10-18T20:53:03.850Z,101493.38
2017-10-18T20:55:30.043Z,101493.84
2017-10-18T20:57:56.297Z,101496.88
2017-10-18T21:00:22.474Z,101495.07
2017-10-18T21:02:48.662Z,101495.98
2017-10-18T21:05:14.934Z,101495.07
2017-10-18T21:07:41.202Z,101491.13
2017-10-18T21:10:07.427Z,101489.84
2017-10-18T21:12:34.100Z,101490.30
2017-10-18T21:15:00.288Z,101489.43
2017-10-18T21:17:26.902Z,101487.27
2017-10-18T21:19:53.261Z,101495.07
2017-10-18T21:22:19.566Z,101494.20
2017-10-18T21:24:45.801Z,101492.41
2017-10-18T21:27:12.374Z,101491.06
2017-10-18T21:29:38.580Z,101490.98
2017-10-18T21:32:04.813Z,101484.37
2017-10-18T21:34:31.632Z,101483.94
2017-10-18T21:36:57.984Z,101485.72
2017-10-18T21:39:24.430Z,101479.14
2017-10-18T21:41:51.066Z,101482.16
2017-10-18T21:44:17.322Z,101478.61
2017-10-18T21:46:43.745Z,101476.86
2017-10-18T21:49:10.337Z,101478.20
2017-10-18T21:51:36.817Z,101488.30
2017-10-18T21:54:03.057Z,101486.05
2017-10-18T21:56:29.299Z,101485.58
2017-10-18T21:58:55.497Z,101474.26
2017-10-18T22:01:21.701Z,101482.56
2017-10-18T22:03:47.934Z,101477.30
2017-10-18T22:06:14.141Z,101477.50
2017-10-18T22:08:40.952Z,101476.77
2017-10-18T22:11:07.160Z,101478.17
2017-10-18T22:13:33.359Z,101476.05
2017-10-18T22:15:59.626Z,101477.00
2017-10-18T22:18:26.054Z,101484.89
2017-10-18T22:20:52.250Z,101479.21
2017-10-18T22:23:18.894Z,101473.13
2017-10-18T22:25:45.105Z,101472.69
2017-10-18T22:28:11.532Z,101474.48
2017-10-18T22:30:38.058Z,101478.42
2017-10-18T22:33:04.500Z,101471.92
2017-10-18T22:35:30.753Z,101480.69
2017-10-18T22:37:57.104Z,101477.24
2017-10-18T22:40:23.469Z,101472.03
2017-10-18T22:42:49.749Z,101475.58
2017-10-18T22:45:16.728Z,101479.05
2017-10-18T22:47:42.926Z,101481.63
2017-10-18T22:50:09.145Z,101482.39
2017-10-18T22:52:35.705Z,101487.16
2017-10-18T22:55:01.893Z,101482.94
2017-10-18T22:57:28.084Z,101477.34
2017-10-18T22:59:54.409Z,101476.50
2017-10-18T23:02:20.609Z,101473.92
2017-10-18T23:04:46.812Z,101475.70
2017-10-18T23:07:14.004Z,101468.75
2017-10-18T23:09:40.202Z,101473.13
2017-10-18T23:12:06.406Z,101468.34
2017-10-18T23:14:32.665Z,101464.42
2017-10-18T23:16:58.856Z,101468.36
2017-10-18T23:19:25.290Z,101467.92
2017-10-18T23:21:51.530Z,101470.11
2017-10-18T23:24:18.650Z,101465.31
2017-10-18T23:26:45.079Z,101464.06
2017-10-18T23:29:11.360Z,101462.75
2017-10-18T23:31:37.557Z,101459.19
2017-10-18T23:34:03.770Z,101453.98
2017-10-18T23:36:30.388Z,101454.86
2017-10-18T23:38:56.584Z,101447.87
2017-10-18T23:41:22.809Z,101452.69
2017-10-18T23:43:49.144Z,101454.88
2017-10-18T23:46:15.356Z,101456.64
2017-10-18T23:48:41.588Z,101454.47
2017-10-18T23:51:08.181Z,101453.19
2017-10-18T23:53:34.377Z,101458.84
2017-10-18T23:56:00.829Z,101460.16
2017-10-18T23:58:27.379Z,101461.05
